createdAt,value
2017-11-03T00:00:38.349Z,47.00
2017-11-03T00:01:39.073Z,42.00
2017-11-03T00:02:39.782Z,34.00
2017-11-03T00:03:40.492Z,49.00
2017-11-03T00:04:41.215Z,43.00
2017-11-03T00:05:41.924Z,42.00
2017-11-03T00:06:42.632Z,47.00
2017-11-03T00:07:43.344Z,48.00
2017-11-03T00:08:44.053Z,42.00
2017-11-03T00:09:44.759Z,42.00
2017-11-03T00:10:45.470Z,44.00
2017-11-03T00:11:46.193Z,50.00
2017-11-03T00:12:46.916Z,39.00
2017-11-03T00:13:47.624Z,44.00
2017-11-03T00:14:48.334Z,45.00
2017-11-03T00:15:49.041Z,53.00
2017-11-03T00:16:49.751Z,47.00
2017-11-03T00:17:50.467Z,58.00
2017-11-03T00:18:51.171Z,42.00
2017-11-03T00:19:51.879Z,40.00
2017-11-03T00:20:52.588Z,47.00
2017-11-03T00:21:53.298Z,40.00
2017-11-03T00:22:54.021Z,31.00
2017-11-03T00:23:54.730Z,35.00
2017-11-03T00:24:55.445Z,48.00
2017-11-03T00:25:56.158Z,50.00
2017-11-03T00:26:56.868Z,35.00
2017-11-03T00:27:57.578Z,52.00
2017-11-03T00:28:58.287Z,48.00
2017-11-03T00:29:58.997Z,44.00
2017-11-03T00:30:59.705Z,37.00
2017-11-03T00:32:00.419Z,42.00
2017-11-03T00:33:01.127Z,40.00
2017-11-03T00:34:01.832Z,43.00
2017-11-03T00:35:02.557Z,51.00
2017-11-03T00:36:03.279Z,41.00
2017-11-03T00:37:04.000Z,36.00
2017-11-03T00:38:04.710Z,49.00
2017-11-03T00:39:05.421Z,49.00
2017-11-03T00:40:06.133Z,43.00
2017-11-03T00:41:06.854Z,46.00
2017-11-03T00:42:07.576Z,40.00
2017-11-03T00:43:08.299Z,42.00
2017-11-03T00:44:09.020Z,30.00
2017-11-03T00:45:09.730Z,44.00
2017-11-03T00:46:10.453Z,45.00
2017-11-03T00:47:11.161Z,44.00
2017-11-03T00:48:11.869Z,37.00
2017-11-03T00:49:12.579Z,49.00
2017-11-03T00:50:13.288Z,53.00
2017-11-03T00:51:14.000Z,38.00
2017-11-03T00:52:14.710Z,44.00
2017-11-03T00:53:15.434Z,56.00
2017-11-03T00:54:16.128Z,42.00
2017-11-03T00:55:16.852Z,48.00
2017-11-03T00:56:17.563Z,37.00
2017-11-03T00:57:18.272Z,45.00
2017-11-03T00:58:18.981Z,46.00
2017-11-03T00:59:19.690Z,46.00
2017-11-03T01:00:20.398Z,48.00
2017-11-03T01:01:21.105Z,67.00
2017-11-03T01:02:21.830Z,33.00
2017-11-03T01:03:22.540Z,43.00
2017-11-03T01:04:23.250Z,53.00
2017-11-03T01:05:23.958Z,38.00
2017-11-03T01:06:24.666Z,41.00
2017-11-03T01:07:25.389Z,50.00
2017-11-03T01:08:26.097Z,38.00
2017-11-03T01:09:26.821Z,55.00
2017-11-03T01:10:27.530Z,48.00
2017-11-03T01:11:28.240Z,50.00
2017-11-03T01:12:28.951Z,47.00
2017-11-03T01:13:29.660Z,56.00
2017-11-03T01:14:30.369Z,48.00
2017-11-03T01:15:31.077Z,33.00
2017-11-03T01:16:31.786Z,45.00
2017-11-03T01:17:32.494Z,34.00
2017-11-03T01:18:33.205Z,45.00
2017-11-03T01:19:33.912Z,43.00
2017-11-03T01:20:34.635Z,43.00
2017-11-03T01:21:35.360Z,34.00
2017-11-03T01:22:36.071Z,43.00
2017-11-03T01:23:36.780Z,37.00
2017-11-03T01:24:37.489Z,35.00
2017-11-03T01:25:38.210Z,39.00
2017-11-03T01:26:38.933Z,57.00
2017-11-03T01:27:39.658Z,48.00
2017-11-03T01:28:40.379Z,44.00
2017-11-03T01:29:41.090Z,54.00
2017-11-03T01:30:41.814Z,44.00
2017-11-03T01:31:42.524Z,48.00
2017-11-03T01:32:43.233Z,36.00
2017-11-03T01:33:43.954Z,49.00
2017-11-03T01:34:44.665Z,45.00
2017-11-03T01:35:45.384Z,50.00
2017-11-03T01:36:46.092Z,46.00
2017-11-03T01:37:46.801Z,44.00
2017-11-03T01:38:47.510Z,57.00
2017-11-03T01:39:48.224Z,53.00
2017-11-03T01:40:48.927Z,40.00
2017-11-03T01:41:49.636Z,41.00
2017-11-03T01:42:50.347Z,39.00
2017-11-03T01:43:51.059Z,57.00
2017-11-03T01:44:51.781Z,46.00
2017-11-03T01:45:52.492Z,36.00
2017-11-03T01:46:53.214Z,40.00
2017-11-03T01:47:53.923Z,51.00
2017-11-03T01:48:54.631Z,37.00
2017-11-03T01:49:55.349Z,49.00
2017-11-03T01:50:56.053Z,36.00
2017-11-03T01:51:56.765Z,46.00
2017-11-03T01:52:57.486Z,46.00
2017-11-03T01:53:58.198Z,41.00
2017-11-03T01:54:58.907Z,54.00
2017-11-03T01:55:59.615Z,47.00
2017-11-03T01:57:00.324Z,54.00
2017-11-03T01:58:01.033Z,79.00
2017-11-03T01:59:01.742Z,54.00
2017-11-03T02:00:02.463Z,51.00
2017-11-03T02:01:03.174Z,48.00
2017-11-03T02:02:03.883Z,50.00
2017-11-03T02:03:04.605Z,59.00
2017-11-03T02:04:05.327Z,60.00
2017-11-03T02:05:06.052Z,59.00
2017-11-03T02:07:22.352Z,55.00
2017-11-03T02:08:23.063Z,51.00
2017-11-03T02:09:23.770Z,59.00
2017-11-03T02:10:24.480Z,55.00
2017-11-03T02:11:25.189Z,62.00
2017-11-03T02:12:25.898Z,57.00
2017-11-03T02:13:26.610Z,67.00
2017-11-03T02:14:27.313Z,64.00
2017-11-03T02:15:28.023Z,79.00
2017-11-03T02:16:28.732Z,84.00
2017-11-03T02:17:29.442Z,60.00
2017-11-03T02:18:30.153Z,73.00
2017-11-03T02:19:30.862Z,96.00
2017-11-03T02:20:31.572Z,103.00
2017-11-03T02:21:32.280Z,184.00
2017-11-03T02:22:32.989Z,138.00
2017-11-03T02:23:33.700Z,144.00
2017-11-03T02:24:34.412Z,144.00
2017-11-03T02:25:35.123Z,316.00
2017-11-03T02:26:35.836Z,413.00
2017-11-03T02:27:36.545Z,257.00
2017-11-03T02:28:37.269Z,123.00
2017-11-03T02:29:37.979Z,201.00
2017-11-03T02:30:38.702Z,315.00
2017-11-03T02:31:39.426Z,283.00
2017-11-03T02:32:40.136Z,305.00
2017-11-03T02:33:40.858Z,365.00
2017-11-03T02:34:41.565Z,275.00
2017-11-03T02:35:42.288Z,248.00
2017-11-03T02:36:42.998Z,221.00
2017-11-03T02:37:43.707Z,177.00
2017-11-03T02:38:44.428Z,159.00
2017-11-03T02:39:45.137Z,208.00
2017-11-03T02:40:45.846Z,147.00
2017-11-03T02:41:46.571Z,302.00
2017-11-03T02:42:47.281Z,278.00
2017-11-03T02:43:47.989Z,162.00
2017-11-03T02:44:48.698Z,200.00
2017-11-03T02:45:49.407Z,190.00
2017-11-03T02:46:50.129Z,221.00
2017-11-03T02:47:50.841Z,154.00
2017-11-03T02:48:51.549Z,256.00
2017-11-03T02:49:52.258Z,131.00
2017-11-03T02:50:52.967Z,146.00
2017-11-03T02:51:53.693Z,143.00
2017-11-03T02:52:54.387Z,215.00
2017-11-03T02:53:55.100Z,259.00
2017-11-03T02:54:55.812Z,167.00
2017-11-03T02:55:56.521Z,149.00
2017-11-03T02:56:57.244Z,89.00
2017-11-03T02:57:57.952Z,147.00
2017-11-03T02:58:58.662Z,157.00
2017-11-03T02:59:59.370Z,114.00
2017-11-03T03:01:00.080Z,121.00
2017-11-03T03:02:00.804Z,133.00
2017-11-03T03:03:01.513Z,146.00
2017-11-03T03:04:02.220Z,85.00
2017-11-03T03:05:02.931Z,119.00
2017-11-03T03:06:03.642Z,109.00
2017-11-03T03:07:04.360Z,154.00
2017-11-03T03:08:05.069Z,176.00
2017-11-03T03:09:05.794Z,120.00
2017-11-03T03:10:06.505Z,118.00
2017-11-03T03:11:07.215Z,125.00
2017-11-03T03:12:07.938Z,115.00
2017-11-03T03:13:08.647Z,136.00
2017-11-03T03:14:09.355Z,109.00
2017-11-03T03:15:10.065Z,96.00
2017-11-03T03:16:10.789Z,182.00
2017-11-03T03:17:11.498Z,100.00
2017-11-03T03:18:12.227Z,200.00
2017-11-03T03:19:12.917Z,104.00
2017-11-03T03:20:13.640Z,151.00
2017-11-03T03:21:14.363Z,161.00
2017-11-03T03:22:15.073Z,146.00
2017-11-03T03:23:15.784Z,129.00
2017-11-03T03:24:16.511Z,74.00
2017-11-03T03:25:17.228Z,108.00
2017-11-03T03:26:17.939Z,148.00
2017-11-03T03:27:18.650Z,185.00
2017-11-03T03:28:19.361Z,298.00
2017-11-03T03:29:20.083Z,267.00
2017-11-03T03:30:20.794Z,107.00
2017-11-03T03:31:21.502Z,221.00
2017-11-03T03:32:22.228Z,130.00
2017-11-03T03:33:22.937Z,103.00
2017-11-03T03:34:23.645Z,172.00
2017-11-03T03:35:24.368Z,325.00
2017-11-03T03:36:25.090Z,198.00
2017-11-03T03:37:25.801Z,168.00
2017-11-03T03:38:26.531Z,221.00
2017-11-03T03:39:27.235Z,272.00
2017-11-03T03:40:27.944Z,319.00
2017-11-03T03:41:28.654Z,436.00
2017-11-03T03:42:29.364Z,193.00
2017-11-03T03:43:30.073Z,192.00
2017-11-03T03:44:30.781Z,470.00
2017-11-03T03:45:31.496Z,356.00
2017-11-03T03:46:32.199Z,353.00
2017-11-03T03:47:32.913Z,542.00
2017-11-03T03:48:33.620Z,186.00
2017-11-03T03:49:34.332Z,476.00
2017-11-03T03:50:35.042Z,262.00
2017-11-03T03:51:35.763Z,274.00
2017-11-03T03:52:36.485Z,271.00
2017-11-03T03:53:37.197Z,301.00
2017-11-03T03:54:37.908Z,299.00
2017-11-03T03:55:38.619Z,336.00
2017-11-03T03:56:39.328Z,260.00
2017-11-03T03:57:40.038Z,384.00
2017-11-03T03:58:40.748Z,408.00
2017-11-03T03:59:41.455Z,227.00
2017-11-03T04:00:42.163Z,241.00
2017-11-03T04:01:42.873Z,308.00
2017-11-03T04:02:43.583Z,312.00
2017-11-03T04:03:44.291Z,260.00
2017-11-03T04:04:45.000Z,193.00
2017-11-03T04:05:45.711Z,348.00
2017-11-03T04:06:46.418Z,278.00
2017-11-03T04:07:47.127Z,243.00
2017-11-03T04:08:47.835Z,176.00
2017-11-03T04:09:48.544Z,284.00
2017-11-03T04:10:49.273Z,122.00
2017-11-03T04:11:49.976Z,119.00
2017-11-03T04:12:50.699Z,308.00
2017-11-03T04:13:51.409Z,325.00
2017-11-03T04:14:52.117Z,244.00
2017-11-03T04:15:52.827Z,168.00
2017-11-03T04:16:53.535Z,203.00
2017-11-03T04:17:54.246Z,324.00
2017-11-03T04:18:54.957Z,242.00
2017-11-03T04:19:55.670Z,260.00
2017-11-03T04:20:56.380Z,148.00
2017-11-03T04:21:57.090Z,241.00
2017-11-03T04:22:57.799Z,170.00
2017-11-03T04:23:58.521Z,156.00
2017-11-03T04:24:59.245Z,223.00
2017-11-03T04:25:59.954Z,121.00
2017-11-03T04:27:00.663Z,205.00
2017-11-03T04:28:01.372Z,212.00
2017-11-03T04:29:02.080Z,202.00
2017-11-03T04:30:02.803Z,120.00
2017-11-03T04:31:03.511Z,168.00
2017-11-03T04:32:04.220Z,203.00
2017-11-03T04:33:04.944Z,176.00
2017-11-03T04:34:05.656Z,154.00
2017-11-03T04:35:06.376Z,156.00
2017-11-03T04:36:07.087Z,119.00
2017-11-03T04:37:07.794Z,165.00
2017-11-03T04:38:08.504Z,177.00
2017-11-03T04:39:09.214Z,159.00
2017-11-03T04:40:09.921Z,277.00
2017-11-03T04:41:10.631Z,156.00
2017-11-03T04:42:11.342Z,217.00
2017-11-03T04:43:12.055Z,208.00
2017-11-03T04:44:12.775Z,199.00
2017-11-03T04:45:13.497Z,208.00
2017-11-03T04:46:14.207Z,232.00
2017-11-03T04:47:14.918Z,196.00
2017-11-03T04:48:15.629Z,267.00
2017-11-03T04:49:16.352Z,162.00
2017-11-03T04:50:17.062Z,414.00
2017-11-03T04:51:17.771Z,180.00
2017-11-03T04:52:18.494Z,246.00
2017-11-03T04:53:19.205Z,246.00
2017-11-03T04:54:19.926Z,243.00
2017-11-03T04:55:20.636Z,193.00
2017-11-03T04:56:21.347Z,239.00
2017-11-03T04:57:22.072Z,199.00
2017-11-03T04:58:22.783Z,200.00
2017-11-03T04:59:23.491Z,198.00
2017-11-03T05:00:24.199Z,144.00
2017-11-03T05:01:24.908Z,223.00
2017-11-03T05:02:25.631Z,291.00
2017-11-03T05:03:26.340Z,258.00
2017-11-03T05:04:27.065Z,186.00
2017-11-03T05:05:27.776Z,226.00
2017-11-03T05:06:28.484Z,248.00
2017-11-03T05:07:29.206Z,270.00
2017-11-03T05:08:29.916Z,184.00
2017-11-03T05:09:30.625Z,267.00
2017-11-03T05:10:31.348Z,192.00
2017-11-03T05:11:32.058Z,490.00
2017-11-03T05:12:32.780Z,293.00
2017-11-03T05:13:33.504Z,298.00
2017-11-03T05:14:34.215Z,306.00
2017-11-03T05:15:34.925Z,188.00
2017-11-03T05:16:35.635Z,305.00
2017-11-03T05:17:36.345Z,138.00
2017-11-03T05:18:37.054Z,249.00
2017-11-03T05:19:37.764Z,237.00
2017-11-03T05:20:38.474Z,170.00
2017-11-03T05:21:39.196Z,169.00
2017-11-03T05:22:39.919Z,374.00
2017-11-03T05:23:40.627Z,115.00
2017-11-03T05:24:41.336Z,202.00
2017-11-03T05:25:42.044Z,127.00
2017-11-03T05:26:42.764Z,259.00
2017-11-03T05:27:43.473Z,166.00
2017-11-03T05:28:44.182Z,189.00
2017-11-03T05:29:44.905Z,245.00
2017-11-03T05:30:45.615Z,110.00
2017-11-03T05:31:46.338Z,171.00
2017-11-03T05:32:47.046Z,134.00
2017-11-03T05:33:47.755Z,153.00
2017-11-03T05:34:48.464Z,172.00
2017-11-03T05:35:49.174Z,320.00
2017-11-03T05:36:49.897Z,231.00
2017-11-03T05:37:50.605Z,227.00
2017-11-03T05:38:51.327Z,282.00
2017-11-03T05:39:52.035Z,212.00
2017-11-03T05:40:52.760Z,242.00
2017-11-03T05:41:53.469Z,147.00
2017-11-03T05:42:54.198Z,161.00
2017-11-03T05:43:54.887Z,129.00
2017-11-03T05:44:55.597Z,195.00
2017-11-03T05:45:56.306Z,213.00
2017-11-03T05:46:57.030Z,246.00
2017-11-03T05:47:57.738Z,391.00
2017-11-03T05:48:58.448Z,109.00
2017-11-03T05:49:59.158Z,124.00
2017-11-03T05:50:59.868Z,211.00
2017-11-03T05:52:00.578Z,93.00
2017-11-03T05:53:01.288Z,193.00
2017-11-03T05:54:02.010Z,184.00
2017-11-03T05:55:02.720Z,126.00
2017-11-03T05:56:03.444Z,141.00
2017-11-03T05:57:04.154Z,267.00
2017-11-03T05:58:04.863Z,166.00
2017-11-03T05:59:05.583Z,148.00
2017-11-03T06:00:06.279Z,171.00
2017-11-03T06:01:06.988Z,346.00
2017-11-03T06:02:07.696Z,82.00
2017-11-03T06:03:08.405Z,161.00
2017-11-03T06:04:09.113Z,75.00
2017-11-03T06:05:09.823Z,160.00
2017-11-03T06:06:10.532Z,122.00
2017-11-03T06:07:11.257Z,124.00
2017-11-03T06:08:11.968Z,89.00
2017-11-03T06:09:12.686Z,101.00
2017-11-03T06:10:13.389Z,150.00
2017-11-03T06:11:14.105Z,139.00
2017-11-03T06:12:14.809Z,107.00
2017-11-03T06:13:15.538Z,78.00
2017-11-03T06:14:16.258Z,125.00
2017-11-03T06:15:16.966Z,154.00
2017-11-03T06:16:17.690Z,143.00
2017-11-03T06:17:18.414Z,113.00
2017-11-03T06:18:19.126Z,140.00
2017-11-03T06:19:19.835Z,71.00
2017-11-03T06:20:20.543Z,135.00
2017-11-03T06:21:21.252Z,123.00
2017-11-03T06:22:21.963Z,116.00
2017-11-03T06:23:22.686Z,93.00
2017-11-03T06:24:23.401Z,128.00
2017-11-03T06:25:24.120Z,126.00
2017-11-03T06:26:24.845Z,108.00
2017-11-03T06:27:25.571Z,71.00
2017-11-03T06:28:26.295Z,90.00
2017-11-03T06:29:27.021Z,122.00
2017-11-03T06:30:27.734Z,92.00
2017-11-03T06:31:28.446Z,90.00
2017-11-03T06:32:29.157Z,103.00
2017-11-03T06:33:29.867Z,119.00
2017-11-03T06:34:30.592Z,103.00
2017-11-03T06:35:31.304Z,108.00
2017-11-03T06:36:32.018Z,112.00
2017-11-03T06:37:32.729Z,67.00
2017-11-03T06:38:33.440Z,64.00
2017-11-03T06:39:34.151Z,115.00
2017-11-03T06:40:34.874Z,79.00
2017-11-03T06:41:35.575Z,86.00
2017-11-03T06:42:36.285Z,62.00
2017-11-03T06:43:36.997Z,90.00
2017-11-03T06:44:37.709Z,71.00
2017-11-03T06:45:38.424Z,92.00
2017-11-03T06:46:39.147Z,59.00
2017-11-03T06:47:39.860Z,69.00
2017-11-03T06:48:40.570Z,83.00
2017-11-03T06:49:41.282Z,82.00
2017-11-03T06:50:41.995Z,84.00
2017-11-03T06:51:42.709Z,75.00
2017-11-03T06:52:43.419Z,84.00
2017-11-03T06:53:44.146Z,100.00
2017-11-03T06:54:44.858Z,86.00
2017-11-03T06:55:45.570Z,92.00
2017-11-03T06:56:46.284Z,61.00
2017-11-03T06:57:47.009Z,88.00
2017-11-03T06:58:47.733Z,63.00
2017-11-03T06:59:48.458Z,95.00
2017-11-03T07:00:49.180Z,56.00
2017-11-03T07:01:49.895Z,103.00
2017-11-03T07:02:50.609Z,110.00
2017-11-03T07:03:51.322Z,67.00
2017-11-03T07:04:52.032Z,62.00
2017-11-03T07:05:52.745Z,85.00
2017-11-03T07:06:53.456Z,59.00
2017-11-03T07:07:54.170Z,61.00
2017-11-03T07:08:54.885Z,104.00
2017-11-03T07:09:55.610Z,112.00
2017-11-03T07:10:56.344Z,76.00
2017-11-03T07:11:57.066Z,82.00
2017-11-03T07:12:57.779Z,61.00
2017-11-03T07:13:58.493Z,103.00
2017-11-03T07:14:59.205Z,73.00
2017-11-03T07:15:59.917Z,95.00
2017-11-03T07:17:00.630Z,75.00
2017-11-03T07:18:01.345Z,77.00
2017-11-03T07:19:02.059Z,63.00
2017-11-03T07:20:02.771Z,81.00
2017-11-03T07:21:03.491Z,85.00
2017-11-03T07:22:04.200Z,73.00
2017-11-03T07:23:04.911Z,76.00
2017-11-03T07:24:05.636Z,80.00
2017-11-03T07:25:06.362Z,82.00
2017-11-03T07:26:07.074Z,71.00
2017-11-03T07:27:07.787Z,83.00
2017-11-03T07:28:08.502Z,68.00
2017-11-03T07:29:09.227Z,85.00
2017-11-03T07:30:09.941Z,84.00
2017-11-03T07:31:10.653Z,69.00
2017-11-03T07:32:11.381Z,83.00
2017-11-03T07:33:12.095Z,105.00
2017-11-03T07:34:12.808Z,83.00
2017-11-03T07:35:13.521Z,84.00
2017-11-03T07:36:14.233Z,93.00
2017-11-03T07:37:14.947Z,104.00
2017-11-03T07:38:15.663Z,104.00
2017-11-03T07:39:16.390Z,103.00
2017-11-03T07:40:17.104Z,132.00
2017-11-03T07:41:17.818Z,130.00
2017-11-03T07:42:18.535Z,152.00
2017-11-03T07:43:19.250Z,110.00
2017-11-03T07:44:19.967Z,142.00
2017-11-03T07:45:20.691Z,82.00
2017-11-03T07:46:21.405Z,90.00
2017-11-03T07:47:22.134Z,106.00
2017-11-03T07:48:22.849Z,125.00
2017-11-03T07:49:23.564Z,128.00
2017-11-03T07:50:24.294Z,109.00
2017-11-03T07:51:25.007Z,127.00
2017-11-03T07:52:25.722Z,172.00
2017-11-03T07:53:26.452Z,112.00
2017-11-03T07:54:27.166Z,118.00
2017-11-03T07:55:27.883Z,146.00
2017-11-03T07:56:28.595Z,128.00
2017-11-03T07:57:29.309Z,118.00
2017-11-03T07:58:30.024Z,98.00
2017-11-03T07:59:30.739Z,110.00
2017-11-03T08:00:31.453Z,146.00
2017-11-03T08:01:32.170Z,126.00
2017-11-03T08:02:32.900Z,158.00
2017-11-03T08:03:33.614Z,115.00
2017-11-03T08:04:34.328Z,149.00
2017-11-03T08:05:35.044Z,123.00
2017-11-03T08:06:35.774Z,166.00
2017-11-03T08:07:36.487Z,174.00
2017-11-03T08:08:37.214Z,148.00
2017-11-03T08:09:37.929Z,117.00
2017-11-03T08:10:38.649Z,120.00
2017-11-03T08:11:39.360Z,174.00
2017-11-03T08:12:40.075Z,142.00
2017-11-03T08:13:40.803Z,108.00
2017-11-03T08:14:41.518Z,123.00
2017-11-03T08:15:42.234Z,144.00
2017-11-03T08:16:42.962Z,136.00
2017-11-03T08:17:43.675Z,145.00
2017-11-03T08:18:44.393Z,143.00
2017-11-03T08:19:45.108Z,177.00
2017-11-03T08:20:45.821Z,134.00
2017-11-03T08:21:46.538Z,131.00
2017-11-03T08:22:47.251Z,136.00
2017-11-03T08:23:47.986Z,109.00
2017-11-03T08:24:48.709Z,100.00
2017-11-03T08:25:49.424Z,147.00
2017-11-03T08:26:50.152Z,124.00
2017-11-03T08:27:50.868Z,131.00
2017-11-03T08:28:51.583Z,163.00
2017-11-03T08:29:52.299Z,138.00
2017-11-03T08:30:53.015Z,144.00
2017-11-03T08:31:53.731Z,129.00
2017-11-03T08:32:54.447Z,141.00
2017-11-03T08:33:55.174Z,126.00
2017-11-03T08:34:55.896Z,123.00
2017-11-03T08:35:56.607Z,149.00
2017-11-03T08:36:57.327Z,126.00
2017-11-03T08:37:58.037Z,141.00
2017-11-03T08:38:58.751Z,138.00
2017-11-03T08:39:59.481Z,138.00
2017-11-03T08:41:00.196Z,145.00
2017-11-03T08:42:00.912Z,146.00
2017-11-03T08:43:01.627Z,166.00
2017-11-03T08:44:02.341Z,186.00
2017-11-03T08:45:03.070Z,151.00
2017-11-03T08:46:03.798Z,158.00
2017-11-03T08:47:04.513Z,149.00
2017-11-03T08:48:05.231Z,143.00
2017-11-03T08:49:05.945Z,140.00
2017-11-03T08:50:06.661Z,133.00
2017-11-03T08:51:07.384Z,152.00
2017-11-03T08:52:08.107Z,140.00
2017-11-03T08:53:08.823Z,153.00
2017-11-03T08:54:09.552Z,148.00
2017-11-03T08:55:10.268Z,158.00
2017-11-03T08:56:10.983Z,164.00
2017-11-03T08:57:11.698Z,135.00
2017-11-03T08:58:12.414Z,169.00
2017-11-03T08:59:13.131Z,147.00
2017-11-03T09:00:13.848Z,157.00
2017-11-03T09:01:14.577Z,167.00
2017-11-03T09:02:15.294Z,146.00
2017-11-03T09:03:16.024Z,144.00
2017-11-03T09:04:16.741Z,135.00
2017-11-03T09:05:17.457Z,145.00
2017-11-03T09:06:18.175Z,141.00
2017-11-03T09:07:18.892Z,144.00
2017-11-03T09:08:19.611Z,135.00
2017-11-03T09:09:20.326Z,130.00
2017-11-03T09:10:21.042Z,159.00
2017-11-03T09:11:21.759Z,142.00
2017-11-03T09:12:22.492Z,141.00
2017-11-03T09:13:23.210Z,127.00
2017-11-03T09:14:23.927Z,147.00
2017-11-03T09:15:24.644Z,114.00
2017-11-03T09:16:25.365Z,155.00
2017-11-03T09:17:26.082Z,144.00
2017-11-03T09:18:26.799Z,127.00
2017-11-03T09:19:27.518Z,167.00
2017-11-03T09:20:28.250Z,145.00
2017-11-03T09:21:28.979Z,156.00
2017-11-03T09:22:29.698Z,142.00
2017-11-03T09:23:30.419Z,142.00
2017-11-03T09:24:31.135Z,127.00
2017-11-03T09:25:31.853Z,125.00
2017-11-03T09:26:32.574Z,144.00
2017-11-03T09:27:33.299Z,138.00
2017-11-03T09:28:34.011Z,102.00
2017-11-03T09:29:34.733Z,138.00
2017-11-03T09:30:35.446Z,146.00
2017-11-03T09:31:36.166Z,132.00
2017-11-03T09:32:36.884Z,123.00
2017-11-03T09:33:37.603Z,137.00
2017-11-03T09:34:38.322Z,118.00
2017-11-03T09:35:39.040Z,129.00
2017-11-03T09:36:39.758Z,140.00
2017-11-03T09:37:40.478Z,111.00
2017-11-03T09:38:41.196Z,136.00
2017-11-03T09:39:41.914Z,150.00
2017-11-03T09:40:42.632Z,129.00
2017-11-03T09:41:43.363Z,128.00
2017-11-03T09:42:44.083Z,121.00
2017-11-03T09:43:44.816Z,130.00
2017-11-03T09:44:45.534Z,107.00
2017-11-03T09:45:46.253Z,140.00
2017-11-03T09:46:46.977Z,126.00
2017-11-03T09:47:47.691Z,132.00
2017-11-03T09:48:48.408Z,124.00
2017-11-03T09:49:49.127Z,108.00
2017-11-03T09:50:49.846Z,129.00
2017-11-03T09:51:50.563Z,102.00
2017-11-03T09:52:51.288Z,110.00
2017-11-03T09:53:52.014Z,104.00
2017-11-03T09:54:52.719Z,121.00
2017-11-03T09:55:53.443Z,113.00
2017-11-03T09:56:54.171Z,124.00
2017-11-03T09:57:54.900Z,128.00
2017-11-03T09:58:55.610Z,130.00
2017-11-03T09:59:56.330Z,125.00
2017-11-03T10:00:57.061Z,121.00
2017-11-03T10:01:57.796Z,117.00
2017-11-03T10:02:58.514Z,121.00
2017-11-03T10:03:59.231Z,97.00
2017-11-03T10:04:59.964Z,120.00
2017-11-03T10:06:00.682Z,116.00
2017-11-03T10:07:01.401Z,125.00
2017-11-03T10:08:02.118Z,107.00
2017-11-03T10:09:02.836Z,95.00
2017-11-03T10:10:03.555Z,94.00
2017-11-03T10:11:04.274Z,108.00
2017-11-03T10:12:04.993Z,120.00
2017-11-03T10:13:05.711Z,114.00
2017-11-03T10:14:06.429Z,113.00
2017-11-03T10:15:07.149Z,112.00
2017-11-03T10:16:07.866Z,121.00
2017-11-03T10:17:08.585Z,99.00
2017-11-03T10:18:09.303Z,116.00
2017-11-03T10:19:10.026Z,110.00
2017-11-03T10:20:10.743Z,115.00
2017-11-03T10:21:11.460Z,110.00
2017-11-03T10:23:27.406Z,123.00
2017-11-03T10:24:28.122Z,115.00
2017-11-03T10:25:28.841Z,102.00
2017-11-03T10:26:29.560Z,126.00
2017-11-03T10:27:30.278Z,111.00
2017-11-03T10:28:31.010Z,102.00
2017-11-03T10:29:31.730Z,128.00
2017-11-03T10:30:32.448Z,112.00
2017-11-03T10:31:33.168Z,115.00
2017-11-03T10:32:33.887Z,129.00
2017-11-03T10:33:34.606Z,109.00
2017-11-03T10:34:35.325Z,106.00
2017-11-03T10:35:36.043Z,106.00
2017-11-03T10:36:36.764Z,144.00
2017-11-03T10:37:37.494Z,116.00
2017-11-03T10:38:38.216Z,108.00
2017-11-03T10:39:38.936Z,111.00
2017-11-03T10:40:39.654Z,96.00
2017-11-03T10:41:40.373Z,115.00
2017-11-03T10:42:41.091Z,114.00
2017-11-03T10:43:41.813Z,100.00
2017-11-03T10:44:42.545Z,103.00
2017-11-03T10:45:43.281Z,110.00
2017-11-03T10:46:44.011Z,128.00
2017-11-03T10:47:44.745Z,113.00
2017-11-03T10:48:45.462Z,112.00
2017-11-03T10:49:46.179Z,95.00
2017-11-03T10:50:46.898Z,102.00
2017-11-03T10:51:47.616Z,96.00
2017-11-03T10:52:48.336Z,117.00
2017-11-03T10:53:49.056Z,126.00
2017-11-03T10:54:49.787Z,93.00
2017-11-03T10:55:50.507Z,124.00
2017-11-03T10:56:51.226Z,116.00
2017-11-03T10:57:51.947Z,105.00
2017-11-03T10:58:52.665Z,110.00
2017-11-03T10:59:53.386Z,111.00
2017-11-03T11:00:54.107Z,144.00
2017-11-03T11:01:54.836Z,115.00
2017-11-03T11:02:55.557Z,102.00
2017-11-03T11:03:56.276Z,110.00
2017-11-03T11:04:57.008Z,114.00
2017-11-03T11:05:57.728Z,109.00
2017-11-03T11:06:58.448Z,112.00
2017-11-03T11:07:59.178Z,99.00
2017-11-03T11:08:59.898Z,116.00
2017-11-03T11:10:00.615Z,97.00
2017-11-03T11:11:01.334Z,123.00
2017-11-03T11:12:02.055Z,107.00
2017-11-03T11:13:02.774Z,115.00
2017-11-03T11:14:03.494Z,108.00
2017-11-03T11:15:04.224Z,110.00
2017-11-03T11:16:04.942Z,103.00
2017-11-03T11:17:05.664Z,124.00
2017-11-03T11:18:06.383Z,127.00
2017-11-03T11:19:07.103Z,113.00
2017-11-03T11:20:07.823Z,211.00
2017-11-03T11:21:08.542Z,146.00
2017-11-03T11:22:09.279Z,109.00
2017-11-03T11:23:09.992Z,90.00
2017-11-03T11:24:10.725Z,101.00
2017-11-03T11:25:11.454Z,111.00
2017-11-03T11:26:12.173Z,106.00
2017-11-03T11:27:12.893Z,124.00
2017-11-03T11:28:13.611Z,98.00
2017-11-03T11:29:14.332Z,127.00
2017-11-03T11:30:15.049Z,90.00
2017-11-03T11:31:15.769Z,111.00
2017-11-03T11:32:16.487Z,96.00
2017-11-03T11:33:17.205Z,124.00
2017-11-03T11:34:17.925Z,112.00
2017-11-03T11:35:18.644Z,104.00
2017-11-03T11:36:19.365Z,118.00
2017-11-03T11:37:20.084Z,98.00
2017-11-03T11:38:20.815Z,112.00
2017-11-03T11:39:21.541Z,101.00
2017-11-03T11:40:22.267Z,103.00
2017-11-03T11:41:22.987Z,105.00
2017-11-03T11:42:23.706Z,106.00
2017-11-03T11:43:24.439Z,103.00
2017-11-03T11:44:25.158Z,102.00
2017-11-03T11:45:25.878Z,116.00
2017-11-03T11:46:26.598Z,119.00
2017-11-03T11:47:27.367Z,115.00
2017-11-03T11:48:28.102Z,121.00
2017-11-03T11:49:28.823Z,111.00
2017-11-03T11:50:29.538Z,120.00
2017-11-03T11:51:30.259Z,87.00
2017-11-03T11:52:30.993Z,116.00
2017-11-03T11:53:31.711Z,115.00
2017-11-03T11:54:32.444Z,109.00
2017-11-03T11:55:33.177Z,111.00
2017-11-03T11:56:33.910Z,112.00
2017-11-03T11:57:34.632Z,112.00
2017-11-03T11:58:35.348Z,117.00
2017-11-03T11:59:36.081Z,117.00
2017-11-03T12:00:36.803Z,113.00
2017-11-03T12:01:37.520Z,109.00
2017-11-03T12:02:38.240Z,118.00
2017-11-03T12:03:38.960Z,105.00
2017-11-03T12:04:39.680Z,95.00
2017-11-03T12:05:40.399Z,122.00
2017-11-03T12:06:41.120Z,120.00
2017-11-03T12:07:41.854Z,93.00
2017-11-03T12:08:42.573Z,103.00
2017-11-03T12:09:43.295Z,89.00
2017-11-03T12:10:44.012Z,101.00
2017-11-03T12:11:44.730Z,101.00
2017-11-03T12:12:45.458Z,121.00
2017-11-03T12:13:46.167Z,98.00
2017-11-03T12:14:46.900Z,96.00
2017-11-03T12:15:47.622Z,95.00
2017-11-03T12:16:48.341Z,102.00
2017-11-03T12:17:49.059Z,122.00
2017-11-03T12:18:49.778Z,115.00
2017-11-03T12:19:50.512Z,104.00
2017-11-03T12:20:51.235Z,107.00
2017-11-03T12:21:51.949Z,99.00
2017-11-03T12:22:52.700Z,106.00
2017-11-03T12:23:53.402Z,119.00
2017-11-03T12:24:54.121Z,88.00
2017-11-03T12:25:54.839Z,92.00
2017-11-03T12:26:55.560Z,117.00
2017-11-03T12:27:56.337Z,90.00
2017-11-03T12:28:57.058Z,110.00
2017-11-03T12:29:57.789Z,108.00
2017-11-03T12:30:58.523Z,98.00
2017-11-03T12:31:59.241Z,110.00
2017-11-03T12:32:59.961Z,102.00
2017-11-03T12:34:00.680Z,103.00
2017-11-03T12:35:01.415Z,100.00
2017-11-03T12:36:02.133Z,117.00
2017-11-03T12:37:02.867Z,125.00
2017-11-03T12:38:03.600Z,109.00
2017-11-03T12:39:04.357Z,112.00
2017-11-03T12:40:05.078Z,116.00
2017-11-03T12:41:05.798Z,116.00
2017-11-03T12:42:06.517Z,98.00
2017-11-03T12:43:07.244Z,117.00
2017-11-03T12:44:07.962Z,97.00
2017-11-03T12:45:08.738Z,111.00
2017-11-03T12:46:09.455Z,112.00
2017-11-03T12:47:10.174Z,107.00